createdAt,value
2016-04-10T00:00:28.811Z,40.15
2016-04-10T00:01:28.829Z,39.86
2016-04-10T00:02:28.863Z,40.44
2016-04-10T00:03:28.881Z,40.24
2016-04-10T00:04:28.900Z,40.05
2016-04-10T00:05:28.918Z,40.15
2016-04-10T00:06:28.952Z,40.24
2016-04-10T00:07:28.955Z,40.15
2016-04-10T00:08:28.974Z,40.05
2016-04-10T00:09:28.991Z,40.15
2016-04-10T00:10:29.025Z,40.34
2016-04-10T00:11:29.043Z,40.15
2016-04-10T00:12:29.062Z,40.05
2016-04-10T00:13:29.080Z,39.95
2016-04-10T00:14:29.098Z,40.24
2016-04-10T00:15:29.118Z,40.53
2016-04-10T00:16:29.135Z,40.44
2016-04-10T00:17:29.168Z,40.53
2016-04-10T00:18:29.188Z,40.53
2016-04-10T00:19:29.206Z,40.53
2016-04-10T00:20:29.240Z,40.34
2016-04-10T00:21:29.242Z,40.44
2016-04-10T00:22:29.276Z,40.63
2016-04-10T00:23:29.294Z,40.34
2016-04-10T00:24:29.298Z,40.63
2016-04-10T00:25:29.331Z,40.53
2016-04-10T00:26:29.365Z,40.53
2016-04-10T00:27:29.383Z,40.63
2016-04-10T00:28:29.402Z,40.53
2016-04-10T00:29:29.405Z,40.91
2016-04-10T00:30:29.438Z,40.91
2016-04-10T00:31:29.441Z,40.81
2016-04-10T00:32:29.475Z,40.72
2016-04-10T00:33:29.494Z,40.81
2016-04-10T00:34:29.511Z,40.81
2016-04-10T00:35:29.530Z,40.81
2016-04-10T00:36:29.549Z,41
2016-04-10T00:37:29.582Z,40.81
2016-04-10T00:38:29.601Z,40.72
2016-04-10T00:39:29.650Z,40.81
2016-04-10T00:40:29.638Z,40.72
2016-04-10T00:41:29.655Z,40.89
2016-04-10T00:42:29.690Z,40.81
2016-04-10T00:43:29.708Z,41.17
2016-04-10T00:44:29.710Z,40.72
2016-04-10T00:45:29.729Z,40.63
2016-04-10T00:46:29.762Z,40.72
2016-04-10T00:47:29.765Z,40.63
2016-04-10T00:48:29.784Z,41.1
2016-04-10T00:49:29.818Z,41.1
2016-04-10T00:50:29.836Z,41
2016-04-10T00:51:29.839Z,41.29
2016-04-10T00:52:31.295Z,41.39
2016-04-10T00:53:29.907Z,41.29
2016-04-10T00:54:29.925Z,41.36
2016-04-10T00:55:29.943Z,41.29
2016-04-10T00:56:29.961Z,41.36
2016-04-10T00:57:29.980Z,41.17
2016-04-10T00:58:29.998Z,41.58
2016-04-10T00:59:30.016Z,41.46
2016-04-10T01:00:30.066Z,41.56
2016-04-10T01:01:30.069Z,41.27
2016-04-10T01:02:30.087Z,41.48
2016-04-10T01:03:30.106Z,41.56
2016-04-10T01:04:30.124Z,41.58
2016-04-10T01:05:30.168Z,41.75
2016-04-10T01:06:30.240Z,41.65
2016-04-10T01:07:30.316Z,41.67
2016-04-10T01:08:30.343Z,41.84
2016-04-10T01:09:30.401Z,41.67
2016-04-10T01:10:30.459Z,41.75
2016-04-10T01:11:30.491Z,41.84
2016-04-10T01:12:30.524Z,41.84
2016-04-10T01:13:30.558Z,41.75
2016-04-10T01:14:30.589Z,41.65
2016-04-10T01:15:30.616Z,42.03
2016-04-10T01:16:30.640Z,42.03
2016-04-10T01:17:30.679Z,41.75
2016-04-10T01:18:30.702Z,41.94
2016-04-10T01:19:30.725Z,41.65
2016-04-10T01:20:30.747Z,41.84
2016-04-10T01:21:30.766Z,41.94
2016-04-10T01:22:30.865Z,42.03
2016-04-10T01:23:30.807Z,41.65
2016-04-10T01:24:30.827Z,42.13
2016-04-10T01:25:30.848Z,41.94
2016-04-10T01:26:30.866Z,42.13
2016-04-10T01:27:30.885Z,42.03
2016-04-10T01:28:30.920Z,42.03
2016-04-10T01:29:30.939Z,41.94
2016-04-10T01:30:30.958Z,42.22
2016-04-10T01:31:30.976Z,42.13
2016-04-10T01:32:30.995Z,42.03
2016-04-10T01:33:31.015Z,42.03
2016-04-10T01:34:31.032Z,42.13
2016-04-10T01:35:31.051Z,42.13
2016-04-10T01:36:31.085Z,42.13
2016-04-10T01:37:31.212Z,42.03
2016-04-10T01:38:31.122Z,42.32
2016-04-10T01:39:31.140Z,42.13
2016-04-10T01:40:31.159Z,42.22
2016-04-10T01:41:31.176Z,41.94
2016-04-10T01:42:31.195Z,42.41
2016-04-10T01:43:31.213Z,42.7
2016-04-10T01:44:31.231Z,42.6
2016-04-10T01:45:31.266Z,42.8
2016-04-10T01:46:31.284Z,42.6
2016-04-10T01:47:31.303Z,42.7
2016-04-10T01:48:31.321Z,41.84
2016-04-10T01:49:31.339Z,42.8
2016-04-10T01:50:31.357Z,42.6
2016-04-10T01:51:31.375Z,41.84
2016-04-10T01:52:30.737Z,41.84
2016-04-10T01:53:31.412Z,41.75
2016-04-10T01:54:31.430Z,41.94
2016-04-10T01:55:31.449Z,42.51
2016-04-10T01:56:31.483Z,41.94
2016-04-10T01:57:31.500Z,42.32
2016-04-10T01:58:31.519Z,42.22
2016-04-10T01:59:31.538Z,42.41
2016-04-10T02:00:31.556Z,42.32
2016-04-10T02:01:31.590Z,42.41
2016-04-10T02:02:31.593Z,42.41
2016-04-10T02:03:31.611Z,42.32
2016-04-10T02:04:31.629Z,42.32
2016-04-10T02:05:31.663Z,42.41
2016-04-10T02:06:31.681Z,42.32
2016-04-10T02:07:31.793Z,42.41
2016-04-10T02:08:31.719Z,42.41
2016-04-10T02:09:31.737Z,42.51
2016-04-10T02:10:31.755Z,42.32
2016-04-10T02:11:31.788Z,42.51
2016-04-10T02:12:31.791Z,42.32
2016-04-10T02:13:31.810Z,42.51
2016-04-10T02:14:31.828Z,42.41
2016-04-10T02:15:31.862Z,42.6
2016-04-10T02:16:31.881Z,42.89
2016-04-10T02:17:31.898Z,42.41
2016-04-10T02:18:31.918Z,42.89
2016-04-10T02:19:31.935Z,43.08
2016-04-10T02:20:31.954Z,42.8
2016-04-10T02:21:31.972Z,42.99
2016-04-10T02:22:32.006Z,43.08
2016-04-10T02:23:32.009Z,42.7
2016-04-10T02:24:32.042Z,42.51
2016-04-10T02:25:32.045Z,42.41
2016-04-10T02:26:32.078Z,43.06
2016-04-10T02:27:32.097Z,43.18
2016-04-10T02:28:32.116Z,43.08
2016-04-10T02:29:32.134Z,43.06
2016-04-10T02:30:32.153Z,43.06
2016-04-10T02:31:32.171Z,43.06
2016-04-10T02:32:32.204Z,42.99
2016-04-10T02:33:32.208Z,43.27
2016-04-10T02:34:32.225Z,43.35
2016-04-10T02:35:32.244Z,43.44
2016-04-10T02:36:32.277Z,43.44
2016-04-10T02:37:32.296Z,43.63
2016-04-10T02:38:32.315Z,43.25
2016-04-10T02:39:32.332Z,42.87
2016-04-10T02:40:32.351Z,42.68
2016-04-10T02:41:32.369Z,42.77
2016-04-10T02:42:32.388Z,42.68
2016-04-10T02:43:32.407Z,42.87
2016-04-10T02:44:32.424Z,42.58
2016-04-10T02:45:32.443Z,43.06
2016-04-10T02:46:32.461Z,42.96
2016-04-10T02:47:32.479Z,43.16
2016-04-10T02:48:32.513Z,43.06
2016-04-10T02:49:32.531Z,42.96
2016-04-10T02:50:32.550Z,43.06
2016-04-10T02:51:32.552Z,43.06
2016-04-10T02:52:32.586Z,42.96
2016-04-10T02:53:32.605Z,43.06
2016-04-10T02:54:32.623Z,43.16
2016-04-10T02:55:32.642Z,43.16
2016-04-10T02:56:32.659Z,43.25
2016-04-10T02:57:32.678Z,43.16
2016-04-10T02:58:32.697Z,42.96
2016-04-10T02:59:32.714Z,42.96
2016-04-10T03:00:32.749Z,42.96
2016-04-10T03:01:32.751Z,42.96
2016-04-10T03:02:32.785Z,43.54
2016-04-10T03:03:32.804Z,43.25
2016-04-10T03:04:32.822Z,43.35
2016-04-10T03:05:32.840Z,43.35
2016-04-10T03:06:32.858Z,43.44
2016-04-10T03:07:32.877Z,43.73
2016-04-10T03:08:32.945Z,43.35
2016-04-10T03:09:32.916Z,43.44
2016-04-10T03:10:32.935Z,43.54
2016-04-10T03:11:32.953Z,43.35
2016-04-10T03:12:32.971Z,43.44
2016-04-10T03:13:32.990Z,43.25
2016-04-10T03:14:33.007Z,43.54
2016-04-10T03:15:33.026Z,43.35
2016-04-10T03:16:33.060Z,43.54
2016-04-10T03:17:33.063Z,43.35
2016-04-10T03:18:33.097Z,43.54
2016-04-10T03:19:33.115Z,43.82
2016-04-10T03:20:33.134Z,43.63
2016-04-10T03:21:33.152Z,43.63
2016-04-10T03:22:33.185Z,44.01
2016-04-10T03:23:33.173Z,43.73
2016-04-10T03:24:33.206Z,43.63
2016-04-10T03:25:33.226Z,43.63
2016-04-10T03:26:33.243Z,43.63
2016-04-10T03:27:33.278Z,43.82
2016-04-10T03:28:33.312Z,44.11
2016-04-10T03:29:33.298Z,43.91
2016-04-10T03:30:33.317Z,43.91
2016-04-10T03:31:33.367Z,43.91
2016-04-10T03:32:33.369Z,43.91
2016-04-10T03:33:33.387Z,44.01
2016-04-10T03:34:33.405Z,43.91
2016-04-10T03:35:33.424Z,43.91
2016-04-10T03:36:33.427Z,44.2
2016-04-10T03:37:33.460Z,44.11
2016-04-10T03:38:33.479Z,43.9
2016-04-10T03:39:33.497Z,43.91
2016-04-10T03:40:33.516Z,44.09
2016-04-10T03:41:33.534Z,44.18
2016-04-10T03:42:33.568Z,43.9
2016-04-10T03:43:33.571Z,44.3
2016-04-10T03:44:33.588Z,44.27
2016-04-10T03:45:33.607Z,44.11
2016-04-10T03:46:33.625Z,44.2
2016-04-10T03:47:33.660Z,44.09
2016-04-10T03:48:33.678Z,44.27
2016-04-10T03:49:33.695Z,44.18
2016-04-10T03:50:33.715Z,44.18
2016-04-10T03:51:33.733Z,44.09
2016-04-10T03:52:33.751Z,44.09
2016-04-10T03:53:33.769Z,44.37
2016-04-10T03:54:33.787Z,44.37
2016-04-10T03:55:33.806Z,44.37
2016-04-10T03:56:33.824Z,44.46
2016-04-10T03:57:33.843Z,44.46
2016-04-10T03:58:33.861Z,44.37
2016-04-10T03:59:33.878Z,44.27
2016-04-10T04:00:33.897Z,44.37
2016-04-10T04:01:33.932Z,44.56
2016-04-10T04:02:33.934Z,44.56
2016-04-10T04:03:33.953Z,44.46
2016-04-10T04:04:33.970Z,44.46
2016-04-10T04:05:34.005Z,44.66
2016-04-10T04:06:34.023Z,44.46
2016-04-10T04:07:34.025Z,44.37
2016-04-10T04:08:34.059Z,44.66
2016-04-10T04:09:34.078Z,44.56
2016-04-10T04:10:34.097Z,44.85
2016-04-10T04:11:34.115Z,44.85
2016-04-10T04:12:34.133Z,44.75
2016-04-10T04:13:34.152Z,44.94
2016-04-10T04:14:34.169Z,44.85
2016-04-10T04:15:34.188Z,44.94
2016-04-10T04:16:34.206Z,44.85
2016-04-10T04:17:34.224Z,44.94
2016-04-10T04:18:34.243Z,44.94
2016-04-10T04:19:34.276Z,44.94
2016-04-10T04:20:34.279Z,44.85
2016-04-10T04:21:34.298Z,45.14
2016-04-10T04:22:34.316Z,45.14
2016-04-10T04:23:34.335Z,44.94
2016-04-10T04:24:34.368Z,44.94
2016-04-10T04:25:34.371Z,45.04
2016-04-10T04:26:34.390Z,44.85
2016-04-10T04:27:34.407Z,45.04
2016-04-10T04:28:34.442Z,44.94
2016-04-10T04:29:34.460Z,45.23
2016-04-10T04:30:34.462Z,45.04
2016-04-10T04:31:34.496Z,45.04
2016-04-10T04:32:34.515Z,45.14
2016-04-10T04:33:34.518Z,45.04
2016-04-10T04:34:34.551Z,45.14
2016-04-10T04:35:34.570Z,45.23
2016-04-10T04:36:34.588Z,45.23
2016-04-10T04:37:34.606Z,45.14
2016-04-10T04:38:34.625Z,45.14
2016-04-10T04:39:34.642Z,45.23
2016-04-10T04:40:34.661Z,45.23
2016-04-10T04:41:34.680Z,45.23
2016-04-10T04:42:34.698Z,45.32
2016-04-10T04:43:34.732Z,45.32
2016-04-10T04:44:34.734Z,45.32
2016-04-10T04:45:34.753Z,45.42
2016-04-10T04:46:34.771Z,45.23
2016-04-10T04:47:34.788Z,45.42
2016-04-10T04:48:34.808Z,45.42
2016-04-10T04:49:34.841Z,45.23
2016-04-10T04:50:34.849Z,45.42
2016-04-10T04:51:34.868Z,45.61
2016-04-10T04:52:34.901Z,45.51
2016-04-10T04:53:34.904Z,45.42
2016-04-10T04:54:34.938Z,45.51
2016-04-10T04:55:34.941Z,45.8
2016-04-10T04:56:34.975Z,45.51
2016-04-10T04:57:34.977Z,45.51
2016-04-10T04:58:34.996Z,45.7
2016-04-10T04:59:35.014Z,45.51
2016-04-10T05:00:35.031Z,45.7
2016-04-10T05:01:35.051Z,45.51
2016-04-10T05:02:35.069Z,45.61
2016-04-10T05:03:35.087Z,45.7
2016-04-10T05:04:35.106Z,45.7
2016-04-10T05:05:35.124Z,45.68
2016-04-10T05:06:35.142Z,45.7
2016-04-10T05:07:35.161Z,45.7
2016-04-10T05:08:35.194Z,45.89
2016-04-10T05:09:35.197Z,45.78
2016-04-10T05:10:35.231Z,45.8
2016-04-10T05:11:35.233Z,45.7
2016-04-10T05:12:35.253Z,45.7
2016-04-10T05:13:35.271Z,45.7
2016-04-10T05:14:35.305Z,46.09
2016-04-10T05:15:35.322Z,45.89
2016-04-10T05:16:35.341Z,45.8
2016-04-10T05:17:35.359Z,45.99
2016-04-10T05:18:35.378Z,45.99
2016-04-10T05:19:35.396Z,45.99
2016-04-10T05:20:35.414Z,45.99
2016-04-10T05:21:35.433Z,45.8
2016-04-10T05:22:35.451Z,45.99
2016-04-10T05:23:35.468Z,45.89
2016-04-10T05:24:35.488Z,45.89
2016-04-10T05:25:35.506Z,46.28
2016-04-10T05:26:35.524Z,46.18
2016-04-10T05:27:35.542Z,46.15
2016-04-10T05:28:35.561Z,46.37
2016-04-10T05:29:35.579Z,45.99
2016-04-10T05:30:35.597Z,46.09
2016-04-10T05:31:35.631Z,46.06
2016-04-10T05:32:35.634Z,46.09
2016-04-10T05:33:35.652Z,46.28
2016-04-10T05:34:35.671Z,46.09
2016-04-10T05:35:35.705Z,46.18
2016-04-10T05:36:35.707Z,46.15
2016-04-10T05:37:35.726Z,46.09
2016-04-10T05:38:35.759Z,46.09
2016-04-10T05:39:35.761Z,45.99
2016-04-10T05:40:35.781Z,46.09
2016-04-10T05:41:35.814Z,45.99
2016-04-10T05:42:35.833Z,45.99
2016-04-10T05:43:35.836Z,45.89
2016-04-10T05:44:35.854Z,46.47
2016-04-10T05:45:35.872Z,45.89
2016-04-10T05:46:35.905Z,46.56
2016-04-10T05:47:35.940Z,46.37
2016-04-10T05:48:35.927Z,46.47
2016-04-10T05:49:35.961Z,46.18
2016-04-10T05:50:35.980Z,46.56
2016-04-10T05:51:35.982Z,46.37
2016-04-10T05:52:36.016Z,46.47
2016-04-10T05:53:36.034Z,46.28
2016-04-10T05:54:36.052Z,46.37
2016-04-10T05:55:36.071Z,46.66
2016-04-10T05:56:36.089Z,46.18
2016-04-10T05:57:35.952Z,46.66
2016-04-10T05:58:36.126Z,46.47
2016-04-10T05:59:36.144Z,46.37
2016-04-10T06:00:36.162Z,46.47
2016-04-10T06:01:36.181Z,46.75
2016-04-10T06:02:36.198Z,46.66
2016-04-10T06:03:36.217Z,46.66
2016-04-10T06:04:36.236Z,46.94
2016-04-10T06:05:36.254Z,47.04
2016-04-10T06:06:36.272Z,46.75
2016-04-10T06:07:36.291Z,46.84
2016-04-10T06:08:36.325Z,46.56
2016-04-10T06:09:36.327Z,46.75
2016-04-10T06:10:36.345Z,46.94
2016-04-10T06:11:36.364Z,46.84
2016-04-10T06:12:36.397Z,46.58
2016-04-10T06:13:36.401Z,47.16
2016-04-10T06:14:36.435Z,47.16
2016-04-10T06:15:36.437Z,47.16
2016-04-10T06:16:36.455Z,47.16
2016-04-10T06:17:36.489Z,47.16
2016-04-10T06:18:36.491Z,46.97
2016-04-10T06:19:36.526Z,47.16
2016-04-10T06:20:36.544Z,47.06
2016-04-10T06:21:36.547Z,46.87
2016-04-10T06:22:36.581Z,46.49
2016-04-10T06:23:36.618Z,47.16
2016-04-10T06:24:36.658Z,46.97
2016-04-10T06:25:36.634Z,47.34
2016-04-10T06:26:36.647Z,46.87
2016-04-10T06:27:36.666Z,47.06
2016-04-10T06:28:36.684Z,47.34
2016-04-10T06:29:36.687Z,46.87
2016-04-10T06:30:36.721Z,47.25
2016-04-10T06:31:36.738Z,47.34
2016-04-10T06:32:36.757Z,47.44
2016-04-10T06:33:36.776Z,47.34
2016-04-10T06:34:36.794Z,47.44
2016-04-10T06:35:36.812Z,47.16
2016-04-10T06:36:36.831Z,47.25
2016-04-10T06:37:36.849Z,46.78
2016-04-10T06:38:36.992Z,47.44
2016-04-10T06:39:36.900Z,47.34
2016-04-10T06:40:36.920Z,47.54
2016-04-10T06:41:36.922Z,47.82
2016-04-10T06:42:36.940Z,47.75
2016-04-10T06:43:36.959Z,47.75
2016-04-10T06:44:36.977Z,48.04
2016-04-10T06:45:36.995Z,47.85
2016-04-10T06:46:37.029Z,47.85
2016-04-10T06:47:37.250Z,47.75
2016-04-10T06:48:37.066Z,47.85
2016-04-10T06:49:37.069Z,47.75
2016-04-10T06:50:37.103Z,47.75
2016-04-10T06:51:37.121Z,47.37
2016-04-10T06:52:37.124Z,47.66
2016-04-10T06:53:37.158Z,47.94
2016-04-10T06:54:37.175Z,47.75
2016-04-10T06:55:37.194Z,47.28
2016-04-10T06:56:37.212Z,47.66
2016-04-10T06:57:37.231Z,47.56
2016-04-10T06:58:37.249Z,47.47
2016-04-10T06:59:37.267Z,47.66
2016-04-10T07:00:37.286Z,47.66
2016-04-10T07:01:37.304Z,47.28
2016-04-10T07:02:37.431Z,47.47
2016-04-10T07:03:37.341Z,47.49
2016-04-10T07:04:37.375Z,47.58
2016-04-10T07:05:37.393Z,47.3
2016-04-10T07:06:37.426Z,47.39
2016-04-10T07:07:37.430Z,47.28
2016-04-10T07:08:37.448Z,46.82
2016-04-10T07:09:37.465Z,47.11
2016-04-10T07:10:37.484Z,46.92
2016-04-10T07:11:37.503Z,46.63
2016-04-10T07:12:37.536Z,46.82
2016-04-10T07:13:37.556Z,47.11
2016-04-10T07:14:37.558Z,47.02
2016-04-10T07:15:37.576Z,46.73
2016-04-10T07:16:37.594Z,46.92
2016-04-10T07:17:37.612Z,46.54
2016-04-10T07:18:37.647Z,46.44
2016-04-10T07:19:37.664Z,46.73
2016-04-10T07:20:37.542Z,46.63
2016-04-10T07:21:37.717Z,46.82
2016-04-10T07:22:37.719Z,46.73
2016-04-10T07:23:37.739Z,46.63
2016-04-10T07:24:37.756Z,46.44
2016-04-10T07:25:37.775Z,46.44
2016-04-10T07:26:37.793Z,46.44
2016-04-10T07:27:37.811Z,46.63
2016-04-10T07:28:37.830Z,46.15
2016-04-10T07:29:37.848Z,46.25
2016-04-10T07:30:37.882Z,46.27
2016-04-10T07:31:37.900Z,45.79
2016-04-10T07:32:37.918Z,45.89
2016-04-10T07:33:37.938Z,45.61
2016-04-10T07:34:37.955Z,45.61
2016-04-10T07:35:38.021Z,45.99
2016-04-10T07:36:37.992Z,45.51
2016-04-10T07:37:38.010Z,45.79
2016-04-10T07:38:38.043Z,45.51
2016-04-10T07:39:38.078Z,45.51
2016-04-10T07:40:38.080Z,45.42
2016-04-10T07:41:38.099Z,45.32
2016-04-10T07:42:38.148Z,45.22
2016-04-10T07:43:38.136Z,45.22
2016-04-10T07:44:38.154Z,45.15
2016-04-10T07:45:38.172Z,45.15
2016-04-10T07:46:38.190Z,44.87
2016-04-10T07:47:38.209Z,44.87
2016-04-10T07:48:38.228Z,44.77
2016-04-10T07:49:38.261Z,44.58
2016-04-10T07:50:38.279Z,44.77
2016-04-10T07:51:38.297Z,44.67
2016-04-10T07:52:38.316Z,44.58
2016-04-10T07:53:38.366Z,44.2
2016-04-10T07:54:38.353Z,44.01
2016-04-10T07:55:38.371Z,44.01
2016-04-10T07:56:38.389Z,44.1
2016-04-10T07:57:38.424Z,43.91
2016-04-10T07:58:38.441Z,44.2
2016-04-10T07:59:38.460Z,44.2
2016-04-10T08:00:38.478Z,44.1
2016-04-10T08:01:38.512Z,44.01
2016-04-10T08:02:38.516Z,43.72
2016-04-10T08:03:38.549Z,44.02
2016-04-10T08:04:38.568Z,44.01
2016-04-10T08:05:38.585Z,43.46
2016-04-10T08:06:38.604Z,43.46
2016-04-10T08:07:38.621Z,43.55
2016-04-10T08:08:38.640Z,43.65
2016-04-10T08:09:38.674Z,43.55
2016-04-10T08:10:38.692Z,43.17
2016-04-10T08:11:38.712Z,43.26
2016-04-10T08:12:38.745Z,43.17
2016-04-10T08:13:38.778Z,43.26
2016-04-10T08:14:38.782Z,42.97
2016-04-10T08:15:38.784Z,42.69
2016-04-10T08:16:38.802Z,43.07
2016-04-10T08:17:38.836Z,43.17
2016-04-10T08:18:38.855Z,43.07
2016-04-10T08:19:38.873Z,42.69
2016-04-10T08:20:38.892Z,42.9
2016-04-10T08:21:38.925Z,42.33
2016-04-10T08:22:38.944Z,42.24
2016-04-10T08:23:38.961Z,42.43
2016-04-10T08:24:38.980Z,41.95
2016-04-10T08:25:38.998Z,42.52
2016-04-10T08:26:39.017Z,42.33
2016-04-10T08:27:39.050Z,42.24
2016-04-10T08:28:39.053Z,42.43
2016-04-10T08:29:39.088Z,42.24
2016-04-10T08:30:39.105Z,42.14
2016-04-10T08:31:39.124Z,42.14
2016-04-10T08:32:39.143Z,41.95
2016-04-10T08:33:39.176Z,41.95
2016-04-10T08:34:39.194Z,42.04
2016-04-10T08:35:39.213Z,41.95
2016-04-10T08:36:39.246Z,41.85
2016-04-10T08:37:39.266Z,41.87
2016-04-10T08:38:39.268Z,41.95
2016-04-10T08:39:39.301Z,41.58
2016-04-10T08:40:39.321Z,41.68
2016-04-10T08:41:39.338Z,41.58
2016-04-10T08:42:39.356Z,41.39
2016-04-10T08:43:39.376Z,41.2
2016-04-10T08:44:39.409Z,40.82
2016-04-10T08:45:39.428Z,40.92
2016-04-10T08:46:39.446Z,41.11
2016-04-10T08:47:39.479Z,40.82
2016-04-10T08:48:39.481Z,41.01
2016-04-10T08:49:39.501Z,40.53
2016-04-10T08:50:39.534Z,40.53
2016-04-10T08:51:39.552Z,40.63
2016-04-10T08:52:39.571Z,40.17
2016-04-10T08:53:39.605Z,40.26
2016-04-10T08:54:39.608Z,39.89
2016-04-10T08:55:39.657Z,39.98
2016-04-10T08:56:39.661Z,39.6
2016-04-10T08:57:39.678Z,39.98
2016-04-10T08:58:39.712Z,39.98
2016-04-10T08:59:39.716Z,39.69
2016-04-10T09:00:39.749Z,39.6
2016-04-10T09:01:39.767Z,39.4
2016-04-10T09:02:39.785Z,39.79
2016-04-10T09:03:39.819Z,39.5
2016-04-10T09:04:39.838Z,39.69
2016-04-10T09:05:39.856Z,39.31
2016-04-10T09:06:39.874Z,39.22
2016-04-10T09:07:39.893Z,39.22
2016-04-10T09:08:39.926Z,39.31
2016-04-10T09:09:39.946Z,39.22
2016-04-10T09:10:39.963Z,39.22
2016-04-10T09:11:39.981Z,38.93
2016-04-10T09:12:40.531Z,39.03
2016-04-10T09:13:40.034Z,39.03
2016-04-10T09:14:40.052Z,39.12
2016-04-10T09:15:40.070Z,39.22
2016-04-10T09:16:40.089Z,39.12
2016-04-10T09:17:40.123Z,39.12
2016-04-10T09:18:40.156Z,38.93
2016-04-10T09:19:40.159Z,39.22
2016-04-10T09:20:40.192Z,38.83
2016-04-10T09:21:40.212Z,38.64
2016-04-10T09:22:40.839Z,38.54
2016-04-10T09:23:40.248Z,38.74
2016-04-10T09:24:40.267Z,38.74
2016-04-10T09:25:40.285Z,38.83
2016-04-10T09:26:40.319Z,39.03
2016-04-10T09:27:40.336Z,38.45
2016-04-10T09:28:40.371Z,38.54
2016-04-10T09:29:40.374Z,38.54
2016-04-10T09:30:40.408Z,38.54
2016-04-10T09:31:40.441Z,38.26
2016-04-10T09:32:40.444Z,38.35
2016-04-10T09:33:40.478Z,38.37
2016-04-10T09:34:40.496Z,38.37
2016-04-10T09:35:40.515Z,38.56
2016-04-10T09:36:40.533Z,38.28
2016-04-10T09:37:40.568Z,38.18
2016-04-10T09:38:40.585Z,38.18
2016-04-10T09:39:40.604Z,38.18
2016-04-10T09:40:40.872Z,38.28
2016-04-10T09:41:40.640Z,38.18
2016-04-10T09:42:40.674Z,38.18
2016-04-10T09:43:40.912Z,38.18
2016-04-10T09:44:40.757Z,38.2
2016-04-10T09:45:43.760Z,38.01
2016-04-10T09:46:40.763Z,38.01
2016-04-10T09:47:40.672Z,37.92
2016-04-10T09:48:40.800Z,37.53
2016-04-10T09:49:40.818Z,37.43
2016-04-10T09:50:40.853Z,37.53
2016-04-10T09:51:40.870Z,37.53
2016-04-10T09:52:40.904Z,37.34
2016-04-10T09:53:40.922Z,37.63
2016-04-10T09:54:40.956Z,37.63
2016-04-10T09:55:40.959Z,37.63
2016-04-10T09:56:40.994Z,37.43
2016-04-10T09:57:41.012Z,37.53
2016-04-10T09:58:41.030Z,37.34
2016-04-10T09:59:41.064Z,37.45
2016-04-10T10:00:41.207Z,37.07
2016-04-10T10:01:41.225Z,37.07
2016-04-10T10:02:41.228Z,37.36
2016-04-10T10:03:41.262Z,36.88
2016-04-10T10:04:41.171Z,36.49
2016-04-10T10:05:41.189Z,36.49
2016-04-10T10:06:41.255Z,36.59
2016-04-10T10:07:41.242Z,36.71
2016-04-10T10:08:41.248Z,36.22
2016-04-10T10:09:41.282Z,35.84
2016-04-10T10:10:41.301Z,35.36
2016-04-10T10:11:41.364Z,35.17
2016-04-10T10:12:41.425Z,35.17
2016-04-10T10:13:41.485Z,35.08
2016-04-10T10:14:41.545Z,34.88
2016-04-10T10:15:41.621Z,34.79
2016-04-10T10:16:41.663Z,34.5
2016-04-10T10:17:41.712Z,34.23
2016-04-10T10:18:41.746Z,34.23
2016-04-10T10:19:41.780Z,33.56
2016-04-10T10:20:41.813Z,33.65
2016-04-10T10:21:41.856Z,33.65
2016-04-10T10:22:41.880Z,33.56
2016-04-10T10:23:41.919Z,33.37
2016-04-10T10:24:41.943Z,33.37
2016-04-10T10:25:41.967Z,33.47
2016-04-10T10:26:41.987Z,33.27
2016-04-10T10:27:41.852Z,32.89
2016-04-10T10:28:42.044Z,32.89
2016-04-10T10:29:42.064Z,33.08
2016-04-10T10:30:42.100Z,32.7
2016-04-10T10:31:42.120Z,32.62
2016-04-10T10:32:42.139Z,32.31
2016-04-10T10:33:42.173Z,32.31
2016-04-10T10:34:42.192Z,32.12
2016-04-10T10:35:42.227Z,32.03
2016-04-10T10:36:42.246Z,32.51
2016-04-10T10:37:42.265Z,32.14
2016-04-10T10:38:42.283Z,32.71
2016-04-10T10:39:42.317Z,32.9
2016-04-10T10:40:42.352Z,32.9
2016-04-10T10:41:42.370Z,32.81
2016-04-10T10:42:42.404Z,32.71
2016-04-10T10:43:42.422Z,32.42
2016-04-10T10:44:42.441Z,32.23
2016-04-10T10:45:42.459Z,32.52
2016-04-10T10:46:42.478Z,32.14
2016-04-10T10:47:42.511Z,32.52
2016-04-10T10:48:42.530Z,32.42
2016-04-10T10:49:42.548Z,32.14
2016-04-10T10:50:42.582Z,32.04
2016-04-10T10:51:42.600Z,31.75
2016-04-10T10:52:42.634Z,31.66
2016-04-10T10:53:42.652Z,32.04
2016-04-10T10:54:42.686Z,32.23
2016-04-10T10:55:42.704Z,32.52
2016-04-10T10:56:42.738Z,32.14
2016-04-10T10:57:42.756Z,31.85
2016-04-10T10:58:42.775Z,32.04
2016-04-10T10:59:42.793Z,32.23
2016-04-10T11:00:42.828Z,32.14
2016-04-10T11:01:42.846Z,32.04
2016-04-10T11:02:42.864Z,31.75
2016-04-10T11:03:42.898Z,32.04
2016-04-10T11:04:42.917Z,32.14
2016-04-10T11:05:42.934Z,31.85
2016-04-10T11:06:42.969Z,32.14
2016-04-10T11:07:42.987Z,31.66
2016-04-10T11:08:43.021Z,31.85
2016-04-10T11:09:43.040Z,31.46
2016-04-10T11:10:43.058Z,31.85
2016-04-10T11:11:43.092Z,31.75
2016-04-10T11:12:43.111Z,31.75
2016-04-10T11:13:43.144Z,31.46
2016-04-10T11:14:43.162Z,31.66
2016-04-10T11:15:43.180Z,31.56
2016-04-10T11:16:43.214Z,31.66
2016-04-10T11:17:43.233Z,30.99
2016-04-10T11:18:43.266Z,31.46
2016-04-10T11:19:43.285Z,31.46
2016-04-10T11:20:43.302Z,31.27
2016-04-10T11:21:43.337Z,31.29
2016-04-10T11:22:43.355Z,31.2
2016-04-10T11:23:43.390Z,31
2016-04-10T11:24:43.408Z,31.1
2016-04-10T11:25:43.441Z,30.9
2016-04-10T11:26:43.460Z,31
2016-04-10T11:27:43.478Z,30.81
2016-04-10T11:28:43.512Z,30.81
2016-04-10T11:29:43.531Z,30.9
2016-04-10T11:30:43.548Z,31.1
2016-04-10T11:31:43.582Z,30.81
2016-04-10T11:32:43.600Z,31.29
2016-04-10T11:33:43.634Z,30.71
2016-04-10T11:34:43.653Z,30.71
2016-04-10T11:35:43.687Z,30.62
2016-04-10T11:36:43.705Z,30.54
2016-04-10T11:37:43.724Z,30.73
2016-04-10T11:38:43.773Z,30.54
2016-04-10T11:39:43.792Z,30.25
2016-04-10T11:40:43.795Z,30.25
2016-04-10T11:41:43.828Z,30.54
2016-04-10T11:42:43.847Z,30.15
2016-04-10T11:43:43.880Z,30.25
2016-04-10T11:44:43.899Z,30.35
2016-04-10T11:45:43.933Z,29.96
2016-04-10T11:46:43.952Z,30.26
2016-04-10T11:47:43.970Z,29.96
2016-04-10T11:48:44.003Z,29.79
2016-04-10T11:49:44.038Z,29.59
2016-04-10T11:50:44.056Z,29.49
2016-04-10T11:51:44.074Z,29.4
2016-04-10T11:52:44.093Z,29.4
2016-04-10T11:53:44.126Z,29.69
2016-04-10T11:54:44.144Z,29.21
2016-04-10T11:55:44.179Z,29.21
2016-04-10T11:56:44.212Z,29.21
2016-04-10T11:57:44.231Z,29.13
2016-04-10T11:58:44.249Z,29.22
2016-04-10T11:59:44.267Z,28.93
2016-04-10T12:00:44.426Z,28.93
2016-04-10T12:01:44.320Z,29.03
2016-04-10T12:02:44.354Z,29.13
2016-04-10T12:03:44.482Z,29.22
2016-04-10T12:04:44.500Z,28.55
2016-04-10T12:05:44.534Z,28.74
2016-04-10T12:06:44.567Z,28.93
2016-04-10T12:07:44.601Z,28.64
2016-04-10T12:08:44.604Z,28.84
2016-04-10T12:09:44.528Z,28.74
2016-04-10T12:10:44.391Z,28.64
2016-04-10T12:11:44.580Z,28.74
2016-04-10T12:12:44.599Z,28.36
2016-04-10T12:13:44.633Z,28.74
2016-04-10T12:14:44.666Z,28.74
2016-04-10T12:15:44.686Z,28.64
2016-04-10T12:16:44.719Z,28.36
2016-04-10T12:17:44.738Z,28.36
2016-04-10T12:18:44.756Z,28.36
2016-04-10T12:19:44.790Z,28.74
2016-04-10T12:20:44.824Z,28.45
2016-04-10T12:21:44.841Z,28.64
2016-04-10T12:22:44.877Z,28.47
2016-04-10T12:23:44.894Z,27.98
2016-04-10T12:24:45.194Z,27.6
2016-04-10T12:25:44.947Z,27.89
2016-04-10T12:26:44.981Z,28.08
2016-04-10T12:27:44.983Z,28.47
2016-04-10T12:28:45.033Z,28.27
2016-04-10T12:29:45.036Z,28.18
2016-04-10T12:30:45.070Z,27.89
2016-04-10T12:31:45.088Z,28.18
2016-04-10T12:32:45.121Z,27.7
2016-04-10T12:33:45.156Z,27.98
2016-04-10T12:34:45.173Z,28.18
2016-04-10T12:35:45.192Z,28.37
2016-04-10T12:36:45.226Z,28.47
2016-04-10T12:37:45.244Z,28.56
2016-04-10T12:38:45.387Z,28.75
2016-04-10T12:39:45.344Z,28.66
2016-04-10T12:40:45.331Z,28.47
2016-04-10T12:41:45.350Z,28.18
2016-04-10T12:42:45.383Z,28.56
2016-04-10T12:43:45.417Z,28.75
2016-04-10T12:44:45.435Z,28.56
2016-04-10T12:45:45.453Z,28.75
2016-04-10T12:46:45.488Z,28.48
2016-04-10T12:47:45.505Z,28.86
2016-04-10T12:48:45.539Z,28.67
2016-04-10T12:49:45.573Z,28.48
2016-04-10T12:50:45.591Z,28.09
2016-04-10T12:51:45.719Z,27.51
2016-04-10T12:52:45.644Z,27.71
2016-04-10T12:53:45.757Z,27.81
2016-04-10T12:54:45.697Z,27.61